Deer Isle, ME (04627)

9:27 AM EDT on August 28, 2016 (GMT -0400)
APRSWXNET | | Change Station

Elev 166 ft 44.24 °N, 68.67 °W | Updated 23 minutes ago

Clear
Clear
68 °F
Feels Like 68 °F
N
0
Wind Variable Wind from North
Gusts 0.0 mph

Today
High -- | Low -- °F
--% Chance of Precip.
Yesterday
High -- | Low -- °F
Precip. -- in
Pressure 30.32 in
Visibility 10.0 miles
Clouds Clear
Dew Point 60 °F
Humidity 75%
Rainfall in
Snow Depth Not available.
5:53 AM 7:16 PM
Waning Crescent, 16% visible
METAR KBHB 281256Z AUTO 00000KT 10SM CLR 18/14 A3031 RMK AO2 SLP268 T01830144
Pressure 30.32 in
Visibility 10.0 miles
Clouds Clear
Dew Point 60 °F
Humidity 75%
Rainfall in
Snow Depth Not available.
5:53 AM 7:16 PM
Waning Crescent, 16% visible
METAR KBHB 281256Z AUTO 00000KT 10SM CLR 18/14 A3031 RMK AO2 SLP268 T01830144

10-Day Weather Forecast

Almanac

Astronomy

Aug. 28, 2016 Rise Set
Actual Time
Civil Twilight
Nautical Twilight
Astronomical Twilight
Moon
Length of Visible Light
Length of Day
Tomorrow will be .
, % of the Moon is Illuminated

Today's Extremes

State Highs State Lows

Community

WunderPhotos

Upload Photos

1,935,559 photos uploaded!

WunderBlog® & News

Nearby

Air Quality

  Air Quality AQ Index Pollutant
Not available.

Snow Depth

Station Depth Elevation

Earthquake Activity

City Distance Mag. Time & Date
Minimum magnitude displayed is 2.5.

Coastal Water Temperatures

Place Temperature

Stations

Nearby Weather Stations

Station Location Temp. Windchill Dew Point Humidity Wind Precip. Elev Updated Type
                   

Watches & Warnings

There are currently no watches in effect.